Terminal Aerodrome Forecast
Issued by NWS

Home | Current Version | Previous Version | Text Only | Print | Product List | Glossary On
Versions: 1 2 3 4 5 6 7 8 9 10 11 12 13 14 15 16 17 18 19
000
FTUS41 KPHI 260500
TAFMIV
TAF
KMIV 260520Z 2606/2706 25006KT P6SM SCT050 BKN100
     FM261000 29008KT P6SM SCT100
     FM261400 30015G28KT P6SM FEW050
     FM262200 30015G20KT P6SM FEW050
     FM270000 30007KT P6SM SKC=

USA.gov is the U.S. government's official web portal to all federal, state and local government web resources and services.